METAR AND TAF INFORMATION
METAR FOR LTAF
ADDS - METARS form results

(1222 UTC 20 April 2018)
Data provider http://aviationweather.gov/adds/metars/
 
METAR text: LTAF 201150Z 04011KT 360V060 9999 SCT035 BKN100 23/15 Q1005 TEMPO -TSRA
Conditions at: LTAF (ADANA/SAKIRPASA , TR) observed 1150 UTC 20 April 2018
Temperature: 23.0°C (73°F)
Dewpoint: 15.0°C (59°F) [RH = 61%]
Pressure (altimeter): 29.68 inches Hg (1005.0 mb)
Winds: from the NE (40 degrees) at 13 MPH (11 knots; 5.7 m/s)
Visibility: 6 or more miles (10+ km)
Ceiling: 10000 feet AGL
Clouds: scattered clouds at 3500 feet AGL
broken clouds at 10000 feet AGL
Weather: no significant weather observed at this time

Forecast for: LTAF (ADANA/SAKIRPASA , TR)
Text: TAF LTAF 201040Z 2012/2112 VRB02KT 9999 SCT035 BKN100
Forecast period: 1200 UTC 20 April 2018 to 0000 UTC 21 April 2018
Forecast type: FROM: standard forecast or significant change
Winds: variable direction winds at 2 MPH (2 knots; 1.0 m/s)
Visibility: 6 or more miles (10+ km)
Ceiling: 10000 feet AGL
Clouds: scattered clouds at 3500 feet AGL
broken clouds at 10000 feet AGL
Weather: no significant weather forecast for this period
Forecast for: LTAF (ADANA/SAKIRPASA , TR)
Text: TAF LTAF 201040Z 2012/2112 VRB02KT 9999 SCT035 BKN100
Forecast period: 1200 UTC 20 April 2018 to 0000 UTC 21 April 2018
Forecast type: FROM: standard forecast or significant change
Winds: variable direction winds at 2 MPH (2 knots; 1.0 m/s)
Visibility: 6 or more miles (10+ km)
Ceiling: 10000 feet AGL
Clouds: scattered clouds at 3500 feet AGL
broken clouds at 10000 feet AGL
Weather: no significant weather forecast for this period
Forecast for: LTAF (ADANA/SAKIRPASA , TR)
Text: TAF LTAF 201040Z 2012/2112 VRB02KT 9999 SCT035 BKN100
Forecast period: 1200 to 1600 UTC 20 April 2018
Forecast type: TEMPORARY: The following changes expected for less than half the time period
Ceiling: 3000 feet AGL
Clouds: scattered clouds at 2000 feet AGL
broken clouds at 3000 feet AGL
Weather: -TSRA  (light rain associated with thunderstorm(s))
Forecast for: LTAF (ADANA/SAKIRPASA , TR)
Text: TAF LTAF 201040Z 2012/2112 VRB02KT 9999 SCT035 BKN100
Forecast period: 1200 to 1600 UTC 20 April 2018
Forecast type: TEMPORARY: The following changes expected for less than half the time period
Ceiling: 3000 feet AGL
Clouds: scattered clouds at 2000 feet AGL
broken clouds at 3000 feet AGL
Weather: -TSRA  (light rain associated with thunderstorm(s))
Forecast for: LTAF (ADANA/SAKIRPASA , TR)
Text: TAF LTAF 201040Z 2012/2112 VRB02KT 9999 SCT035 BKN100
Forecast period: 2000 UTC 20 April 2018 to 0000 UTC 21 April 2018
Forecast type: TEMPORARY: The following changes expected for less than half the time period
Ceiling: 3000 feet AGL
Clouds: scattered clouds at 2000 feet AGL
broken clouds at 3000 feet AGL
Weather: -TSRA  (light rain associated with thunderstorm(s))
Forecast for: LTAF (ADANA/SAKIRPASA , TR)
Text: TAF LTAF 201040Z 2012/2112 VRB02KT 9999 SCT035 BKN100
Forecast period: 2000 UTC 20 April 2018 to 0000 UTC 21 April 2018
Forecast type: TEMPORARY: The following changes expected for less than half the time period
Ceiling: 3000 feet AGL
Clouds: scattered clouds at 2000 feet AGL
broken clouds at 3000 feet AGL
Weather: -TSRA  (light rain associated with thunderstorm(s))
Forecast for: LTAF (ADANA/SAKIRPASA , TR)
Text: TAF LTAF 201040Z 2012/2112 VRB02KT 9999 SCT035 BKN100
Forecast period: 0000 to 1200 UTC 21 April 2018
Forecast type: BECOMING: Conditions expected to become as follows by 0200 UTC 21 April 2018
Winds: from the NNE (30 degrees) at 14 MPH (12 knots; 6.2 m/s)
Visibility: 6 or more miles (10+ km)
Ceiling: 10000 feet AGL
Clouds: scattered clouds at 3500 feet AGL
broken clouds at 10000 feet AGL
Weather: no significant weather forecast for this period
Forecast for: LTAF (ADANA/SAKIRPASA , TR)
Text: TAF LTAF 201040Z 2012/2112 VRB02KT 9999 SCT035 BKN100
Forecast period: 0000 to 1200 UTC 21 April 2018
Forecast type: BECOMING: Conditions expected to become as follows by 0200 UTC 21 April 2018
Winds: from the NNE (30 degrees) at 14 MPH (12 knots; 6.2 m/s)
Visibility: 6 or more miles (10+ km)
Ceiling: 10000 feet AGL
Clouds: scattered clouds at 3500 feet AGL
broken clouds at 10000 feet AGL
Weather: no significant weather forecast for this period

 AIRPORT MAP

 RUNWAY INFORMATION
Runway 05 Runway length 9022 ft Runway width 148 ft
Runway elevation 54 ft Runway displaced threshold 0 ft Runway heading 54
Runway 23 Runway length 9022 ft Runway width 148 ft
Runway elevation 65 ft Runway displaced threshold 0 ft Runway heading 234

 AIRPORT FREQUENCIES
Type APP Name INCIRLIK A Frequency 126.5 MHZ
Type ATIS Name Frequency 119.225 MHZ
Type GND Name Frequency 121.9 MHZ
Type TWR Name TWR Frequency 121.1 MHZ

 AIRPORT NEAR NAVIGATION AIDS
Type VOR-DME Name Adana Frequency 112700 KHZ
Type NDB Name Adana Frequency 395 KHZ



Powered by Virtual Airlines Manager [v2.6.2]